createdAt,value
2018-07-12T00:01:16.705Z,93.74
2018-07-12T00:03:43.759Z,94.06
2018-07-12T00:06:10.836Z,94.15
2018-07-12T00:08:37.886Z,93.58
2018-07-12T00:11:04.971Z,92.23
2018-07-12T00:13:32.047Z,93.30
2018-07-12T00:15:59.124Z,94.15
2018-07-12T00:18:26.187Z,94.88
2018-07-12T00:20:53.285Z,94.22
2018-07-12T00:23:20.352Z,94.89
2018-07-12T00:25:47.434Z,95.47
2018-07-12T00:28:14.504Z,94.95
2018-07-12T00:30:41.571Z,94.80
2018-07-12T00:33:08.653Z,94.58
2018-07-12T00:35:35.750Z,94.32
2018-07-12T00:38:02.819Z,94.26
2018-07-12T00:40:29.887Z,93.82
2018-07-12T00:42:56.951Z,94.22
2018-07-12T00:45:24.018Z,95.15
2018-07-12T00:47:51.099Z,94.79
2018-07-12T00:50:18.174Z,95.32
2018-07-12T00:52:45.243Z,95.43
2018-07-12T00:55:12.334Z,95.61
2018-07-12T00:57:39.396Z,95.07
2018-07-12T01:00:06.474Z,93.86
2018-07-12T01:02:33.541Z,93.65
2018-07-12T01:05:00.620Z,93.39
2018-07-12T01:07:27.700Z,92.51
2018-07-12T01:09:54.776Z,92.25
2018-07-12T01:12:21.855Z,91.22
2018-07-12T01:14:48.909Z,91.20
2018-07-12T01:17:15.983Z,92.13
2018-07-12T01:19:43.059Z,91.91
2018-07-12T01:22:10.123Z,91.56
2018-07-12T01:24:37.209Z,91.37
2018-07-12T01:27:04.268Z,92.16
2018-07-12T01:29:31.339Z,90.83
2018-07-12T01:31:58.412Z,90.93
2018-07-12T01:34:25.471Z,92.04
2018-07-12T01:36:52.564Z,93.11
2018-07-12T01:39:19.626Z,92.44
2018-07-12T01:41:46.702Z,92.80
2018-07-12T01:44:13.771Z,93.71
2018-07-12T01:46:40.851Z,93.96
2018-07-12T01:49:07.919Z,92.81
2018-07-12T01:51:35.020Z,92.26
2018-07-12T01:54:02.122Z,92.48
2018-07-12T01:56:29.193Z,93.31
2018-07-12T01:58:56.281Z,92.36
2018-07-12T02:01:23.344Z,91.70
2018-07-12T02:03:50.407Z,91.46
2018-07-12T02:06:17.495Z,91.89
2018-07-12T02:08:44.582Z,92.49
2018-07-12T02:11:11.655Z,91.86
2018-07-12T02:13:38.732Z,91.34
2018-07-12T02:16:05.798Z,92.33
2018-07-12T02:18:32.864Z,92.03
2018-07-12T02:20:59.938Z,92.56
2018-07-12T02:23:27.009Z,92.37
2018-07-12T02:25:54.097Z,91.99
2018-07-12T02:28:21.173Z,91.95
2018-07-12T02:30:48.297Z,91.06
2018-07-12T02:33:15.420Z,91.06
2018-07-12T02:35:42.515Z,91.50
2018-07-12T02:38:09.591Z,90.87
2018-07-12T02:40:36.703Z,91.31
2018-07-12T02:43:03.758Z,92.62
2018-07-12T02:45:30.827Z,92.46
2018-07-12T02:47:57.892Z,93.84
2018-07-12T02:50:24.971Z,94.69
2018-07-12T02:52:52.043Z,94.34
2018-07-12T02:55:19.207Z,94.03
2018-07-12T02:57:46.337Z,94.34
2018-07-12T03:00:13.509Z,94.26
2018-07-12T03:02:40.602Z,94.34
2018-07-12T03:05:07.704Z,92.79
2018-07-12T03:07:34.883Z,93.27
2018-07-12T03:10:01.972Z,92.34
2018-07-12T03:12:29.072Z,91.40
2018-07-12T03:14:56.142Z,92.21
2018-07-12T03:17:23.211Z,91.96
2018-07-12T03:19:50.281Z,92.36
2018-07-12T03:22:17.356Z,92.02
2018-07-12T03:24:44.535Z,92.76
2018-07-12T03:27:11.612Z,94.04
2018-07-12T03:29:38.698Z,94.59
2018-07-12T03:32:05.768Z,94.84
2018-07-12T03:34:32.859Z,95.41
2018-07-12T03:36:59.978Z,94.81
2018-07-12T03:39:27.044Z,94.59
2018-07-12T03:41:54.422Z,95.01
2018-07-12T03:44:21.510Z,94.46
2018-07-12T03:46:48.597Z,93.89
2018-07-12T03:49:15.662Z,95.28
2018-07-12T03:51:42.787Z,95.96
2018-07-12T03:54:09.874Z,96.57
2018-07-12T03:56:36.941Z,95.94
2018-07-12T03:59:04.002Z,95.89
2018-07-12T04:01:31.084Z,96.07
2018-07-12T04:03:58.165Z,96.24
2018-07-12T04:06:25.260Z,96.64
2018-07-12T04:08:52.329Z,96.44
2018-07-12T04:11:19.406Z,96.43
2018-07-12T04:13:46.477Z,95.94
2018-07-12T04:16:13.639Z,96.08
2018-07-12T04:18:40.732Z,95.85
2018-07-12T04:21:07.852Z,96.38
2018-07-12T04:23:34.914Z,96.49
2018-07-12T04:26:01.987Z,95.21
2018-07-12T04:28:29.047Z,95.58
2018-07-12T04:30:56.128Z,95.49
2018-07-12T04:33:23.198Z,94.97
2018-07-12T04:35:50.276Z,93.76
2018-07-12T04:38:17.346Z,94.50
2018-07-12T04:40:44.419Z,94.48
2018-07-12T04:43:11.487Z,95.16
2018-07-12T04:45:38.573Z,94.58
2018-07-12T04:48:05.635Z,94.47
2018-07-12T04:50:32.712Z,94.15
2018-07-12T04:52:59.783Z,94.01
2018-07-12T04:55:26.856Z,94.54
2018-07-12T04:57:53.948Z,94.91
2018-07-12T05:00:21.049Z,94.62
2018-07-12T05:02:48.187Z,93.36
2018-07-12T05:05:15.238Z,93.55
2018-07-12T05:07:42.331Z,94.38
2018-07-12T05:10:09.416Z,94.40
2018-07-12T05:12:36.486Z,94.36
2018-07-12T05:15:03.556Z,93.03
2018-07-12T05:17:30.630Z,93.02
2018-07-12T05:19:57.699Z,92.00
2018-07-12T05:22:24.775Z,91.33
2018-07-12T05:24:51.852Z,90.86
2018-07-12T05:27:19.013Z,91.78
2018-07-12T05:29:46.080Z,92.77
2018-07-12T05:32:13.145Z,92.77
2018-07-12T05:34:40.212Z,91.02
2018-07-12T05:37:08.300Z,89.31
2018-07-12T05:39:36.356Z,88.60
2018-07-12T05:42:04.438Z,88.08
2018-07-12T05:44:32.527Z,87.66
2018-07-12T05:47:00.604Z,87.19
2018-07-12T05:49:28.689Z,86.65
2018-07-12T05:51:56.771Z,86.42
2018-07-12T05:54:24.855Z,86.49
2018-07-12T05:56:52.950Z,86.44
2018-07-12T05:59:21.044Z,85.87
2018-07-12T06:02:00.299Z,85.49
2018-07-12T06:04:28.427Z,85.23
2018-07-12T06:06:56.459Z,84.09
2018-07-12T06:09:24.539Z,85.31
2018-07-12T06:11:52.644Z,84.48
2018-07-12T06:14:20.753Z,83.76
2018-07-12T06:16:48.828Z,82.68
2018-07-12T06:19:16.898Z,82.75
2018-07-12T06:21:44.999Z,81.89
2018-07-12T06:24:13.089Z,79.45
2018-07-12T06:26:41.172Z,79.07
2018-07-12T06:29:09.280Z,79.01
2018-07-12T06:31:37.356Z,78.75
2018-07-12T06:34:05.452Z,81.09
2018-07-12T06:36:33.547Z,83.04
2018-07-12T06:39:01.689Z,81.90
2018-07-12T06:41:29.811Z,80.62
2018-07-12T06:43:57.895Z,77.95
2018-07-12T06:46:25.988Z,78.18
2018-07-12T06:48:54.063Z,78.25
2018-07-12T06:51:22.153Z,74.84
2018-07-12T06:53:50.418Z,75.16
2018-07-12T06:56:18.477Z,74.95
2018-07-12T06:58:46.643Z,74.76
2018-07-12T07:01:14.767Z,73.57
2018-07-12T07:03:42.836Z,73.15
2018-07-12T07:06:10.933Z,72.58
2018-07-12T07:08:39.008Z,70.78
2018-07-12T07:11:07.348Z,71.86
2018-07-12T07:13:35.723Z,72.38
2018-07-12T07:16:03.855Z,72.08
2018-07-12T07:18:31.970Z,70.74
2018-07-12T07:21:00.048Z,71.70
2018-07-12T07:23:28.156Z,72.38
2018-07-12T07:25:56.227Z,73.68
2018-07-12T07:28:24.313Z,73.10
2018-07-12T07:30:52.389Z,72.69
2018-07-12T07:33:27.123Z,75.08
2018-07-12T07:35:55.124Z,75.38
2018-07-12T07:38:23.216Z,74.50
2018-07-12T07:40:51.294Z,70.17
2018-07-12T07:43:19.505Z,69.51
2018-07-12T07:45:47.509Z,69.18
2018-07-12T07:48:15.587Z,68.72
2018-07-12T07:50:43.715Z,68.71
2018-07-12T07:53:11.780Z,69.05
2018-07-12T07:55:39.878Z,68.02
2018-07-12T07:58:07.960Z,68.32
2018-07-12T08:00:36.008Z,68.21
2018-07-12T08:03:04.089Z,68.49
2018-07-12T08:05:32.174Z,68.27
2018-07-12T08:08:00.232Z,68.62
2018-07-12T08:10:28.396Z,69.06
2018-07-12T08:12:56.506Z,69.35
2018-07-12T08:15:24.604Z,70.23
2018-07-12T08:17:52.744Z,72.98
2018-07-12T08:20:21.882Z,74.32
2018-07-12T08:22:49.954Z,72.30
2018-07-12T08:25:18.028Z,72.55
2018-07-12T08:27:58.175Z,74.45
2018-07-12T08:30:26.252Z,74.36
2018-07-12T08:32:54.376Z,73.04
2018-07-12T08:35:22.446Z,70.36
2018-07-12T08:37:50.910Z,71.11
2018-07-12T08:40:19.134Z,69.91
2018-07-12T08:42:47.258Z,71.39
2018-07-12T08:45:17.591Z,70.75
2018-07-12T08:47:45.684Z,68.30
2018-07-12T08:50:13.807Z,66.65
2018-07-12T08:52:41.891Z,68.97
2018-07-12T08:55:09.964Z,68.74
2018-07-12T08:57:38.151Z,67.25
2018-07-12T09:00:06.296Z,66.63
2018-07-12T09:02:34.387Z,63.87
2018-07-12T09:05:02.443Z,63.77
2018-07-12T09:07:30.496Z,61.20
2018-07-12T09:09:58.567Z,61.11
2018-07-12T09:12:26.662Z,58.38
2018-07-12T09:14:54.734Z,59.62
2018-07-12T09:17:22.851Z,59.57
2018-07-12T09:19:50.963Z,59.24
2018-07-12T09:22:19.074Z,58.66
2018-07-12T09:24:47.184Z,58.91
2018-07-12T09:27:15.276Z,57.62
2018-07-12T09:29:43.473Z,58.05
2018-07-12T09:32:11.552Z,57.93
2018-07-12T09:34:39.624Z,57.63
2018-07-12T09:37:07.742Z,57.84
2018-07-12T09:39:36.124Z,58.91
2018-07-12T09:42:10.899Z,59.41
2018-07-12T09:44:38.994Z,59.99
2018-07-12T09:47:07.111Z,58.51
2018-07-12T09:49:35.220Z,58.70
2018-07-12T09:52:03.276Z,58.01
2018-07-12T09:54:31.335Z,58.04
2018-07-12T09:57:10.644Z,57.98
2018-07-12T09:59:38.799Z,59.48
2018-07-12T10:02:12.265Z,56.96
2018-07-12T10:04:40.336Z,56.34
2018-07-12T10:07:13.784Z,56.35
2018-07-12T10:09:47.276Z,56.32
2018-07-12T10:12:20.755Z,57.65
2018-07-12T10:14:50.878Z,56.30
2018-07-12T10:17:24.204Z,56.57
2018-07-12T10:19:52.340Z,57.33
2018-07-12T10:22:20.352Z,56.26
2018-07-12T10:24:51.054Z,56.15
2018-07-12T10:27:19.091Z,53.38
2018-07-12T10:29:47.202Z,53.59
2018-07-12T10:32:15.212Z,53.81
2018-07-12T10:34:43.296Z,53.97
2018-07-12T10:37:11.361Z,54.88
2018-07-12T10:39:39.485Z,54.81
2018-07-12T10:42:07.548Z,53.84
2018-07-12T10:44:35.689Z,53.43
2018-07-12T10:47:03.750Z,53.00
2018-07-12T10:49:31.821Z,52.80
2018-07-12T10:51:59.879Z,52.59
2018-07-12T10:54:29.356Z,53.06
2018-07-12T10:56:57.436Z,52.63
2018-07-12T10:59:29.000Z,53.12
2018-07-12T11:01:57.064Z,53.25
2018-07-12T11:04:25.147Z,52.70
2018-07-12T11:06:54.019Z,52.80
2018-07-12T11:09:22.120Z,53.13
2018-07-12T11:11:50.239Z,53.25
2018-07-12T11:14:18.305Z,53.25
2018-07-12T11:16:46.416Z,53.94
2018-07-12T11:19:17.028Z,54.34
2018-07-12T11:21:45.225Z,53.93
2018-07-12T11:24:20.243Z,54.27
2018-07-12T11:27:03.265Z,54.66
2018-07-12T11:29:42.905Z,54.40
2018-07-12T11:34:55.706Z,54.48
2018-07-12T11:37:26.252Z,54.12
2018-07-12T11:39:54.402Z,54.62
2018-07-12T11:42:22.575Z,55.60
2018-07-12T11:45:03.575Z,56.37
2018-07-12T11:56:23.784Z,54.64
2018-07-12T12:01:32.557Z,52.40
2018-07-12T12:04:00.728Z,53.41
2018-07-12T12:06:28.911Z,50.65
2018-07-12T12:08:57.135Z,51.25
2018-07-12T12:11:25.378Z,50.25
2018-07-12T12:13:53.487Z,49.40
2018-07-12T12:16:21.717Z,53.39
2018-07-12T12:18:51.628Z,53.42
2018-07-12T12:21:19.822Z,54.60
2018-07-12T12:23:48.028Z,53.74
2018-07-12T12:26:16.313Z,55.04
2018-07-12T12:28:46.840Z,53.86
2018-07-12T12:31:15.019Z,55.15
2018-07-12T12:34:01.156Z,53.17
2018-07-12T12:36:29.323Z,51.43
2018-07-12T12:38:57.455Z,53.01
2018-07-12T12:41:25.527Z,53.14
2018-07-12T12:43:53.676Z,54.76
2018-07-12T12:46:21.735Z,55.12
2018-07-12T12:48:49.856Z,54.13
2018-07-12T12:51:17.938Z,53.39
2018-07-12T12:53:46.003Z,54.31
2018-07-12T12:56:14.095Z,52.86
2018-07-12T12:58:42.189Z,54.46
2018-07-12T13:01:10.327Z,49.88
2018-07-12T13:03:38.391Z,51.16
2018-07-12T13:06:06.592Z,50.56
2018-07-12T13:08:34.771Z,50.38
2018-07-12T13:11:03.030Z,50.13
2018-07-12T13:13:31.225Z,48.44
2018-07-12T13:15:59.498Z,48.94
2018-07-12T13:18:27.969Z,49.19
2018-07-12T13:20:58.129Z,49.82
2018-07-12T13:23:26.516Z,50.29
2018-07-12T13:25:54.842Z,50.98
2018-07-12T13:28:22.949Z,51.65
2018-07-12T13:30:51.350Z,52.07
2018-07-12T13:33:19.483Z,50.57
2018-07-12T13:35:47.558Z,46.88
2018-07-12T13:41:31.465Z,47.68
2018-07-12T13:44:13.065Z,47.34
2018-07-12T13:46:42.295Z,47.49
2018-07-12T13:49:11.876Z,49.12
2018-07-12T13:51:40.464Z,48.98
2018-07-12T13:54:10.392Z,48.15
2018-07-12T13:56:39.194Z,48.38
2018-07-12T13:59:09.934Z,48.46
2018-07-12T14:01:43.757Z,49.30
2018-07-12T14:04:12.865Z,48.91
2018-07-12T14:06:42.266Z,48.76
2018-07-12T14:09:13.288Z,48.67
2018-07-12T14:11:41.762Z,47.82
2018-07-12T14:14:11.111Z,47.46
2018-07-12T14:16:40.112Z,48.03
2018-07-12T14:19:08.711Z,47.45
2018-07-12T14:21:39.220Z,47.31
2018-07-12T14:24:08.379Z,47.50
2018-07-12T14:26:38.382Z,47.13
2018-07-12T14:29:08.941Z,46.78
2018-07-12T14:31:39.021Z,46.99
2018-07-12T14:34:07.610Z,47.04
2018-07-12T14:36:38.813Z,47.17
2018-07-12T14:39:09.721Z,47.03
2018-07-12T14:41:38.221Z,47.45
2018-07-12T14:44:07.717Z,45.70
2018-07-12T14:46:38.127Z,46.48
2018-07-12T14:49:10.532Z,46.86
2018-07-12T14:51:38.788Z,46.71
2018-07-12T14:54:06.971Z,46.63
2018-07-12T14:56:35.196Z,45.33
2018-07-12T14:59:03.535Z,45.26
2018-07-12T15:01:40.648Z,45.60
2018-07-12T15:04:08.719Z,46.21
2018-07-12T15:06:36.797Z,43.91
2018-07-12T15:09:10.309Z,44.07
2018-07-12T15:11:38.840Z,44.75
2018-07-12T15:14:07.081Z,44.95
2018-07-12T15:16:35.152Z,44.29
2018-07-12T15:19:03.479Z,44.28
2018-07-12T15:21:31.590Z,43.89
2018-07-12T15:23:59.794Z,43.86
2018-07-12T15:26:27.955Z,43.52
2018-07-12T15:28:56.142Z,44.75
2018-07-12T15:31:24.393Z,43.69
2018-07-12T15:33:52.544Z,43.57
2018-07-12T15:36:20.832Z,46.02
2018-07-12T15:38:49.011Z,48.27
2018-07-12T15:41:17.151Z,45.88
2018-07-12T15:43:45.332Z,46.63
2018-07-12T15:46:13.588Z,45.34
2018-07-12T15:48:42.508Z,45.57
2018-07-12T15:51:10.740Z,45.92
2018-07-12T15:53:38.958Z,46.70
2018-07-12T15:56:07.826Z,44.46
2018-07-12T15:58:38.975Z,44.67
2018-07-12T16:01:07.178Z,42.67
2018-07-12T16:03:35.392Z,43.01
2018-07-12T16:06:03.606Z,44.15
2018-07-12T16:08:31.815Z,42.52
2018-07-12T16:11:00.048Z,46.21
2018-07-12T16:13:28.255Z,48.97
2018-07-12T16:15:56.416Z,43.63
2018-07-12T16:18:24.647Z,43.48
2018-07-12T16:20:52.858Z,43.45
2018-07-12T16:23:21.068Z,44.44
2018-07-12T16:25:49.243Z,42.58
2018-07-12T16:28:17.379Z,46.01
2018-07-12T16:30:45.455Z,43.61
2018-07-12T16:33:13.544Z,44.16
2018-07-12T16:35:41.641Z,44.73
2018-07-12T16:38:09.770Z,43.77
2018-07-12T16:40:37.839Z,42.46
2018-07-12T16:43:05.996Z,43.92
2018-07-12T16:45:34.088Z,42.95
2018-07-12T16:48:02.208Z,43.33
2018-07-12T16:50:30.273Z,45.07
2018-07-12T16:52:58.344Z,45.25
2018-07-12T16:55:26.407Z,44.22
2018-07-12T16:57:54.482Z,44.67
2018-07-12T17:00:22.656Z,42.31
2018-07-12T17:02:50.966Z,44.16
2018-07-12T17:05:19.079Z,42.55
2018-07-12T17:07:47.409Z,41.77
2018-07-12T17:10:15.513Z,40.31
2018-07-12T17:12:43.917Z,41.01
2018-07-12T17:15:16.890Z,39.71
2018-07-12T17:20:43.273Z,38.06
2018-07-12T17:23:30.235Z,40.63
2018-07-12T17:25:59.396Z,39.35
2018-07-12T17:28:27.781Z,37.98
2018-07-12T17:30:56.167Z,40.14
2018-07-12T17:33:24.399Z,39.35
2018-07-12T17:35:52.562Z,39.70
2018-07-12T17:38:20.821Z,41.55
2018-07-12T17:40:48.984Z,40.22
2018-07-12T17:43:17.185Z,38.73
2018-07-12T17:45:45.411Z,38.02
2018-07-12T17:48:14.279Z,39.25
2018-07-12T17:50:42.463Z,37.70
2018-07-12T17:53:10.694Z,36.12
2018-07-12T17:56:15.520Z,37.34
2018-07-12T18:04:42.751Z,43.32
2018-07-12T18:11:01.761Z,42.34
2018-07-12T18:27:31.998Z,44.72
2018-07-12T18:31:58.776Z,46.19
2018-07-12T18:57:55.997Z,48.60
2018-07-12T19:00:51.647Z,48.14
2018-07-12T19:08:57.536Z,49.10
2018-07-12T20:19:12.548Z,66.50
2018-07-12T20:21:56.474Z,67.95
2018-07-12T20:25:03.825Z,68.25
2018-07-12T20:54:45.121Z,68.41
2018-07-12T21:06:11.931Z,68.57
2018-07-12T21:12:02.002Z,70.41
2018-07-12T22:21:01.735Z,77.18
2018-07-12T22:23:33.304Z,75.95
2018-07-12T22:26:07.974Z,74.77
2018-07-12T22:28:38.790Z,74.72
2018-07-12T22:31:12.204Z,74.98
2018-07-12T22:33:43.041Z,75.03
2018-07-12T22:36:16.871Z,75.16
2018-07-12T22:38:47.142Z,74.78
2018-07-12T22:41:20.550Z,74.91
2018-07-12T22:43:50.504Z,76.83
2018-07-12T22:46:31.628Z,76.85
2018-07-12T22:49:01.544Z,77.11
2018-07-12T22:51:50.176Z,79.07
2018-07-12T23:00:38.755Z,80.28
2018-07-12T23:03:39.676Z,79.62
2018-07-12T23:06:10.026Z,79.71
2018-07-12T23:08:39.285Z,79.79
2018-07-12T23:11:19.654Z,80.27
2018-07-12T23:16:41.821Z,81.02
2018-07-12T23:19:17.607Z,80.75
2018-07-12T23:21:52.639Z,79.90
2018-07-12T23:24:27.148Z,80.83
2018-07-12T23:27:00.750Z,82.08
2018-07-12T23:29:38.100Z,81.06
2018-07-12T23:32:14.232Z,80.54
2018-07-12T23:34:52.329Z,80.92
2018-07-12T23:37:28.981Z,80.94
2018-07-12T23:42:50.196Z,80.21
2018-07-12T23:45:27.128Z,80.82
2018-07-12T23:51:28.900Z,81.13
2018-07-12T23:54:02.743Z,82.05
2018-07-12T23:56:38.019Z,81.86
2018-07-12T23:59:13.648Z,81.23
